Terminal Aerodrome Forecast
Issued by NWS

Home | Current Version | Previous Version | Text Only | Print | Product List | Glossary On
Versions: 1 2 3 4 5 6 7 8 9 10 11 12 13
000
FTUS43 KAPX 021720
TAFPLN
TAF
KPLN 021720Z 0218/0318 31011G20KT P6SM OVC018
     FM022200 31009KT P6SM OVC020
     FM030900 31004KT P6SM OVC015
     FM031600 31007KT P6SM OVC020=

USA.gov is the U.S. government's official web portal to all federal, state and local government web resources and services.